createdAt,value
2022-10-09T00:03:26.834Z,2.17
2022-10-09T00:08:29.182Z,2.22
2022-10-09T00:13:30.988Z,2.28
2022-10-09T00:18:33.093Z,2.35
2022-10-09T00:23:34.789Z,2.85
2022-10-09T00:28:38.723Z,2.47
2022-10-09T00:33:41.458Z,2.20
2022-10-09T00:38:43.522Z,2.78
2022-10-09T00:44:03.713Z,2.70
2022-10-09T00:49:14.303Z,2.58
2022-10-09T00:54:20.311Z,2.67
2022-10-09T00:59:22.874Z,2.75
2022-10-09T01:04:24.609Z,2.92
2022-10-09T01:09:32.149Z,2.38
2022-10-09T01:14:41.873Z,2.15
2022-10-09T01:19:55.801Z,2.60
2022-10-09T01:25:14.998Z,2.97
2022-10-09T01:30:16.979Z,2.75
2022-10-09T01:35:20.523Z,2.65
2022-10-09T01:40:24.699Z,3.03
2022-10-09T01:45:39.744Z,2.95
2022-10-09T01:50:46.063Z,2.53
2022-10-09T01:56:06.009Z,2.70
2022-10-09T02:01:18.297Z,2.22
2022-10-09T02:06:20.586Z,2.42
2022-10-09T02:11:23.529Z,3.00
2022-10-09T02:16:37.375Z,2.75
2022-10-09T02:21:54.476Z,2.45
2022-10-09T02:26:58.680Z,3.13
2022-10-09T02:32:00.516Z,3.33
2022-10-09T02:37:02.945Z,2.70
2022-10-09T02:42:05.033Z,2.17
2022-10-09T02:47:06.791Z,2.63
2022-10-09T02:52:08.698Z,2.70
2022-10-09T02:57:10.498Z,2.55
2022-10-09T03:02:12.305Z,2.60
2022-10-09T03:07:14.078Z,2.80
2022-10-09T03:12:21.094Z,3.15
2022-10-09T03:17:22.859Z,2.22
2022-10-09T03:22:24.587Z,2.80
2022-10-09T03:27:26.367Z,2.67
2022-10-09T03:32:28.171Z,2.50
2022-10-09T03:37:29.990Z,2.40
2022-10-09T03:42:31.695Z,3.17
2022-10-09T03:47:33.397Z,2.63
2022-10-09T03:52:36.299Z,3.20
2022-10-09T03:57:38.041Z,2.83
2022-10-09T04:02:39.791Z,3.00
2022-10-09T04:07:41.509Z,2.67
2022-10-09T04:12:43.393Z,2.92
2022-10-09T04:17:45.165Z,3.25
2022-10-09T04:22:47.305Z,2.88
2022-10-09T04:27:50.290Z,3.03
2022-10-09T04:32:52.324Z,2.67
2022-10-09T04:37:54.113Z,2.85
2022-10-09T04:42:56.341Z,3.00
2022-10-09T04:47:58.114Z,3.25
2022-10-09T04:52:59.867Z,2.90
2022-10-09T04:58:01.610Z,3.13
2022-10-09T05:03:03.543Z,3.20
2022-10-09T05:08:05.419Z,3.30
2022-10-09T05:13:07.147Z,3.13
2022-10-09T05:18:08.825Z,3.70
2022-10-09T05:23:10.569Z,2.95
2022-10-09T05:28:12.372Z,3.28
2022-10-09T05:33:14.173Z,4.00
2022-10-09T05:38:15.986Z,4.00
2022-10-09T05:43:18.113Z,4.20
2022-10-09T05:48:20.713Z,3.88
2022-10-09T05:53:22.650Z,3.92
2022-10-09T05:58:24.372Z,4.20
2022-10-09T06:03:26.123Z,5.57
2022-10-09T06:08:28.587Z,7.10
2022-10-09T06:13:30.323Z,5.18
2022-10-09T06:18:32.310Z,4.47
2022-10-09T06:23:35.079Z,4.80
2022-10-09T06:28:37.028Z,4.50
2022-10-09T06:33:40.680Z,6.28
2022-10-09T06:38:42.876Z,4.40
2022-10-09T06:43:49.674Z,4.78
2022-10-09T06:48:51.533Z,4.75
2022-10-09T06:53:55.054Z,4.93
2022-10-09T06:58:59.852Z,5.40
2022-10-09T07:04:03.426Z,5.22
2022-10-09T07:09:07.660Z,4.95
2022-10-09T07:14:10.925Z,4.30
2022-10-09T07:19:14.164Z,4.28
2022-10-09T07:24:17.000Z,4.40
2022-10-09T07:29:19.680Z,4.53
2022-10-09T07:34:21.422Z,4.47
2022-10-09T07:39:23.148Z,3.95
2022-10-09T07:44:24.908Z,4.07
2022-10-09T07:49:26.620Z,4.45
2022-10-09T07:54:28.342Z,4.60
2022-10-09T07:59:30.165Z,4.07
2022-10-09T08:04:31.885Z,4.45
2022-10-09T08:09:33.625Z,4.20
2022-10-09T08:14:35.321Z,4.93
2022-10-09T08:19:37.144Z,4.03
2022-10-09T08:24:39.804Z,4.20
2022-10-09T08:29:41.662Z,4.38
2022-10-09T08:34:43.533Z,4.40
2022-10-09T08:39:45.293Z,3.92
2022-10-09T08:44:49.130Z,9.20
2022-10-09T08:50:00.041Z,4.32
2022-10-09T08:55:14.677Z,4.20
2022-10-09T09:00:18.199Z,4.35
2022-10-09T09:05:46.406Z,4.07
2022-10-09T09:10:55.144Z,4.93
2022-10-09T09:16:09.541Z,4.05
2022-10-09T09:21:16.427Z,3.72
2022-10-09T09:26:21.577Z,3.88
2022-10-09T09:31:28.061Z,2.90
2022-10-09T09:36:47.049Z,2.47
2022-10-09T09:41:48.785Z,2.60
2022-10-09T09:46:50.703Z,3.60
2022-10-09T09:51:53.406Z,2.95
2022-10-09T09:57:12.940Z,3.30
2022-10-09T10:02:21.796Z,3.08
2022-10-09T10:07:35.639Z,3.25
2022-10-09T10:12:43.200Z,2.75
2022-10-09T10:17:45.075Z,2.55
2022-10-09T10:22:52.314Z,2.92
2022-10-09T10:28:02.444Z,3.00
2022-10-09T10:33:15.826Z,1.88
2022-10-09T10:38:45.622Z,1.90
2022-10-09T10:44:03.949Z,1.90
2022-10-09T10:49:11.451Z,2.13
2022-10-09T10:54:23.227Z,1.65
2022-10-09T10:59:41.884Z,2.00
2022-10-09T11:04:50.885Z,1.73
2022-10-09T11:10:04.387Z,1.70
2022-10-09T11:15:19.347Z,1.73
2022-10-09T11:20:53.615Z,1.60
2022-10-09T11:26:13.888Z,1.40
2022-10-09T11:31:41.606Z,1.60
2022-10-09T11:36:44.969Z,1.77
2022-10-09T11:41:48.944Z,4.90
2022-10-09T11:47:10.331Z,1.55
2022-10-09T11:52:24.131Z,1.90
2022-10-09T11:57:30.228Z,1.50
2022-10-09T12:02:32.407Z,1.55
2022-10-09T12:07:36.908Z,1.23
2022-10-09T12:12:39.109Z,1.75
2022-10-09T12:17:49.777Z,1.20
2022-10-09T12:23:25.097Z,1.42
2022-10-09T12:28:40.394Z,3.63
2022-10-09T12:33:47.935Z,1.53
2022-10-09T12:38:49.793Z,1.80
2022-10-09T12:43:54.497Z,1.30
2022-10-09T12:48:57.137Z,1.60
2022-10-09T12:53:59.139Z,1.88
2022-10-09T12:59:02.159Z,1.20
2022-10-09T13:04:06.158Z,1.70
2022-10-09T13:09:17.537Z,2.33
2022-10-09T13:14:51.907Z,1.60
2022-10-09T13:19:56.361Z,1.77
2022-10-09T13:24:59.297Z,1.80
2022-10-09T13:30:01.506Z,1.27
2022-10-09T13:35:03.559Z,1.75
2022-10-09T13:40:06.028Z,1.60
2022-10-09T13:45:09.911Z,1.73
2022-10-09T13:50:14.182Z,1.55
2022-10-09T13:55:16.165Z,1.50
2022-10-09T14:00:18.063Z,1.67
2022-10-09T14:05:22.061Z,1.50
2022-10-09T14:10:24.192Z,1.63
2022-10-09T14:15:26.066Z,1.92
2022-10-09T14:20:28.615Z,1.90
2022-10-09T14:25:30.746Z,2.00
2022-10-09T14:30:32.529Z,1.58
2022-10-09T14:35:34.534Z,1.77
2022-10-09T14:40:44.825Z,1.90
2022-10-09T14:45:46.611Z,1.90
2022-10-09T14:50:48.355Z,1.80
2022-10-09T14:55:50.090Z,1.80
2022-10-09T15:00:51.830Z,1.45
2022-10-09T15:06:01.293Z,1.42
2022-10-09T15:16:08.578Z,1.90
2022-10-09T15:21:16.388Z,2.00
2022-10-09T15:26:19.338Z,1.55
2022-10-09T15:31:25.629Z,1.92
2022-10-09T15:36:28.455Z,2.08
2022-10-09T15:41:32.320Z,2.70
2022-10-09T15:46:34.553Z,2.42
2022-10-09T15:51:36.469Z,2.35
2022-10-09T15:56:40.256Z,2.45
2022-10-09T16:01:43.004Z,2.08
2022-10-09T16:06:45.735Z,2.20
2022-10-09T16:11:48.787Z,2.80
2022-10-09T16:16:52.181Z,2.60
2022-10-09T16:21:54.027Z,2.10
2022-10-09T16:26:55.801Z,2.70
2022-10-09T16:31:57.587Z,2.97
2022-10-09T16:37:02.099Z,3.05
2022-10-09T16:42:04.020Z,2.90
2022-10-09T16:47:05.922Z,3.20
2022-10-09T16:52:07.888Z,3.03
2022-10-09T16:57:10.107Z,2.88
2022-10-09T17:02:13.988Z,3.45
2022-10-09T17:07:15.867Z,3.10
2022-10-09T17:12:17.939Z,3.03
2022-10-09T17:17:19.742Z,2.72
2022-10-09T17:22:21.451Z,2.95
2022-10-09T17:27:23.166Z,3.10
2022-10-09T17:32:25.253Z,2.90
2022-10-09T17:37:26.996Z,3.22
2022-10-09T17:42:28.783Z,3.10
2022-10-09T17:47:30.504Z,3.30
2022-10-09T17:52:32.259Z,3.22
2022-10-09T17:57:33.991Z,3.25
2022-10-09T18:02:36.038Z,3.47
2022-10-09T18:07:37.769Z,5.28
2022-10-09T18:12:39.495Z,3.08
2022-10-09T18:17:41.371Z,3.50
2022-10-09T18:22:43.163Z,3.53
2022-10-09T18:27:47.806Z,4.38
2022-10-09T18:32:51.139Z,3.22
2022-10-09T18:37:53.360Z,3.40
2022-10-09T18:42:55.165Z,3.10
2022-10-09T18:47:57.105Z,3.83
2022-10-09T18:53:00.166Z,3.80
2022-10-09T18:58:04.621Z,3.88
2022-10-09T19:03:06.815Z,3.70
2022-10-09T19:08:08.550Z,3.10
2022-10-09T19:13:10.258Z,3.85
2022-10-09T19:18:12.613Z,3.50
2022-10-09T19:23:15.482Z,4.13
2022-10-09T19:28:17.726Z,3.47
2022-10-09T19:33:19.562Z,3.33
2022-10-09T19:38:22.566Z,4.88
2022-10-09T19:43:25.429Z,4.25
2022-10-09T19:48:27.253Z,3.50
2022-10-09T19:53:29.084Z,3.58
2022-10-09T19:58:30.818Z,3.67
2022-10-09T20:03:32.816Z,4.20
2022-10-09T20:08:39.289Z,4.05
2022-10-09T20:13:42.695Z,4.20
2022-10-09T20:18:44.853Z,3.72
2022-10-09T20:23:46.584Z,3.90
2022-10-09T20:28:49.040Z,3.13
2022-10-09T20:33:51.658Z,4.13
2022-10-09T20:39:01.442Z,3.35
2022-10-09T20:44:03.888Z,3.20
2022-10-09T20:49:09.972Z,3.90
2022-10-09T20:54:17.521Z,3.40
2022-10-09T20:59:19.317Z,3.60
2022-10-09T21:04:21.052Z,3.65
2022-10-09T21:09:25.348Z,3.55
2022-10-09T21:14:29.251Z,3.40
2022-10-09T21:19:31.141Z,3.38
2022-10-09T21:24:32.862Z,3.70
2022-10-09T21:29:34.835Z,3.70
2022-10-09T21:34:36.580Z,3.83
2022-10-09T21:39:38.284Z,3.40
2022-10-09T21:44:40.017Z,4.07
2022-10-09T21:49:41.836Z,3.20
2022-10-09T21:54:43.558Z,3.75
2022-10-09T21:59:45.250Z,3.65
2022-10-09T22:04:47.064Z,3.35
2022-10-09T22:09:48.811Z,3.08
2022-10-09T22:14:50.539Z,3.40
2022-10-09T22:19:56.112Z,3.78
2022-10-09T22:25:00.325Z,3.15
2022-10-09T22:30:02.313Z,3.03
2022-10-09T22:35:04.251Z,3.40
2022-10-09T22:40:06.543Z,3.38
2022-10-09T22:45:08.848Z,3.30
2022-10-09T22:50:10.717Z,3.70
2022-10-09T22:55:12.428Z,3.20
2022-10-09T23:00:14.913Z,3.08
2022-10-09T23:05:16.706Z,3.20
2022-10-09T23:10:18.451Z,3.58
2022-10-09T23:15:20.164Z,2.75
2022-10-09T23:20:21.962Z,2.83
2022-10-09T23:25:23.685Z,3.30
2022-10-09T23:30:25.416Z,3.00
2022-10-09T23:35:27.149Z,3.30
2022-10-09T23:40:28.865Z,2.95
2022-10-09T23:45:30.556Z,2.85
2022-10-09T23:50:32.548Z,2.50
2022-10-09T23:55:34.318Z,3.00
